sensor_id;sensor_type;location;lat;lon;timestamp;P1;durP1;ratioP1;P2;durP2;ratioP2
2698;SDS011;1359;51.798;12.174;2023-03-01T00:01:46;26.23;;;19.37;;
2698;SDS011;1359;51.798;12.174;2023-03-01T00:04:11;26.77;;;20.73;;
2698;SDS011;1359;51.798;12.174;2023-03-01T00:06:37;25.83;;;19.87;;
2698;SDS011;1359;51.798;12.174;2023-03-01T00:09:02;21.80;;;18.90;;
2698;SDS011;1359;51.798;12.174;2023-03-01T00:11:29;22.50;;;18.07;;
2698;SDS011;1359;51.798;12.174;2023-03-01T00:13:55;31.93;;;18.83;;
2698;SDS011;1359;51.798;12.174;2023-03-01T00:16:22;25.10;;;18.07;;
2698;SDS011;1359;51.798;12.174;2023-03-01T00:18:48;26.90;;;17.93;;
2698;SDS011;1359;51.798;12.174;2023-03-01T00:21:13;25.07;;;18.70;;
2698;SDS011;1359;51.798;12.174;2023-03-01T00:23:39;23.73;;;18.30;;
2698;SDS011;1359;51.798;12.174;2023-03-01T00:26:08;25.77;;;19.20;;
2698;SDS011;1359;51.798;12.174;2023-03-01T00:28:34;20.27;;;18.10;;
2698;SDS011;1359;51.798;12.174;2023-03-01T00:31:04;23.33;;;19.57;;
2698;SDS011;1359;51.798;12.174;2023-03-01T00:33:30;24.23;;;18.40;;
2698;SDS011;1359;51.798;12.174;2023-03-01T00:35:57;28.93;;;19.03;;
2698;SDS011;1359;51.798;12.174;2023-03-01T00:38:23;25.93;;;17.77;;
2698;SDS011;1359;51.798;12.174;2023-03-01T00:40:48;28.70;;;20.20;;
2698;SDS011;1359;51.798;12.174;2023-03-01T00:43:14;28.17;;;20.47;;
2698;SDS011;1359;51.798;12.174;2023-03-01T00:45:39;24.30;;;19.40;;
2698;SDS011;1359;51.798;12.174;2023-03-01T00:48:04;25.60;;;19.37;;
2698;SDS011;1359;51.798;12.174;2023-03-01T00:50:30;26.63;;;17.97;;
2698;SDS011;1359;51.798;12.174;2023-03-01T00:52:56;27.53;;;20.00;;
2698;SDS011;1359;51.798;12.174;2023-03-01T00:55:21;27.20;;;19.37;;
2698;SDS011;1359;51.798;12.174;2023-03-01T00:57:47;24.20;;;17.97;;
2698;SDS011;1359;51.798;12.174;2023-03-01T01:00:13;26.43;;;18.50;;
2698;SDS011;1359;51.798;12.174;2023-03-01T01:02:39;26.37;;;17.90;;
2698;SDS011;1359;51.798;12.174;2023-03-01T01:05:05;26.53;;;19.03;;
2698;SDS011;1359;51.798;12.174;2023-03-01T01:07:32;22.60;;;18.57;;
2698;SDS011;1359;51.798;12.174;2023-03-01T01:09:57;22.17;;;17.33;;
2698;SDS011;1359;51.798;12.174;2023-03-01T01:12:22;27.80;;;18.70;;
2698;SDS011;1359;51.798;12.174;2023-03-01T01:14:48;24.33;;;18.27;;
2698;SDS011;1359;51.798;12.174;2023-03-01T01:17:13;31.43;;;19.70;;
2698;SDS011;1359;51.798;12.174;2023-03-01T01:19:39;25.97;;;18.07;;
2698;SDS011;1359;51.798;12.174;2023-03-01T01:22:04;30.63;;;20.17;;
2698;SDS011;1359;51.798;12.174;2023-03-01T01:24:30;26.53;;;20.00;;
2698;SDS011;1359;51.798;12.174;2023-03-01T01:26:56;26.70;;;19.37;;
2698;SDS011;1359;51.798;12.174;2023-03-01T01:29:22;23.67;;;18.17;;
2698;SDS011;1359;51.798;12.174;2023-03-01T01:31:47;25.20;;;19.13;;
2698;SDS011;1359;51.798;12.174;2023-03-01T01:34:14;28.23;;;17.90;;
2698;SDS011;1359;51.798;12.174;2023-03-01T01:36:40;25.30;;;18.27;;
2698;SDS011;1359;51.798;12.174;2023-03-01T01:39:05;20.23;;;16.53;;
2698;SDS011;1359;51.798;12.174;2023-03-01T01:41:30;28.37;;;19.53;;
2698;SDS011;1359;51.798;12.174;2023-03-01T01:46:47;19.40;;;16.40;;
2698;SDS011;1359;51.798;12.174;2023-03-01T01:49:22;25.97;;;16.63;;
2698;SDS011;1359;51.798;12.174;2023-03-01T01:51:49;22.23;;;15.00;;
2698;SDS011;1359;51.798;12.174;2023-03-01T01:54:20;18.00;;;15.60;;
2698;SDS011;1359;51.798;12.174;2023-03-01T01:56:48;23.03;;;16.17;;
2698;SDS011;1359;51.798;12.174;2023-03-01T01:59:14;20.60;;;14.83;;
2698;SDS011;1359;51.798;12.174;2023-03-01T02:01:40;17.80;;;12.57;;
2698;SDS011;1359;51.798;12.174;2023-03-01T02:04:05;22.63;;;14.30;;
2698;SDS011;1359;51.798;12.174;2023-03-01T02:06:35;15.67;;;13.60;;
2698;SDS011;1359;51.798;12.174;2023-03-01T02:09:04;18.80;;;14.80;;
2698;SDS011;1359;51.798;12.174;2023-03-01T02:11:31;26.67;;;15.10;;
2698;SDS011;1359;51.798;12.174;2023-03-01T02:13:56;18.67;;;13.30;;
2698;SDS011;1359;51.798;12.174;2023-03-01T02:16:22;17.10;;;13.60;;
2698;SDS011;1359;51.798;12.174;2023-03-01T02:18:47;22.10;;;15.40;;
2698;SDS011;1359;51.798;12.174;2023-03-01T02:21:19;17.93;;;14.53;;
2698;SDS011;1359;51.798;12.174;2023-03-01T02:23:48;22.60;;;15.80;;
2698;SDS011;1359;51.798;12.174;2023-03-01T02:26:16;17.33;;;13.70;;
2698;SDS011;1359;51.798;12.174;2023-03-01T02:28:43;18.30;;;15.03;;
2698;SDS011;1359;51.798;12.174;2023-03-01T02:31:10;19.37;;;15.23;;
2698;SDS011;1359;51.798;12.174;2023-03-01T02:33:54;18.63;;;15.47;;
2698;SDS011;1359;51.798;12.174;2023-03-01T02:36:21;17.80;;;14.60;;
2698;SDS011;1359;51.798;12.174;2023-03-01T02:38:48;19.93;;;15.60;;
2698;SDS011;1359;51.798;12.174;2023-03-01T02:41:15;21.00;;;16.23;;
2698;SDS011;1359;51.798;12.174;2023-03-01T02:43:42;21.50;;;15.27;;
2698;SDS011;1359;51.798;12.174;2023-03-01T02:46:13;17.83;;;14.37;;
2698;SDS011;1359;51.798;12.174;2023-03-01T02:48:39;22.10;;;14.53;;
2698;SDS011;1359;51.798;12.174;2023-03-01T02:51:07;21.40;;;15.80;;
2698;SDS011;1359;51.798;12.174;2023-03-01T02:53:53;20.60;;;15.70;;
2698;SDS011;1359;51.798;12.174;2023-03-01T02:56:21;24.93;;;15.40;;
2698;SDS011;1359;51.798;12.174;2023-03-01T02:58:46;17.63;;;13.93;;
2698;SDS011;1359;51.798;12.174;2023-03-01T03:01:16;20.30;;;15.60;;
2698;SDS011;1359;51.798;12.174;2023-03-01T03:03:41;20.27;;;15.50;;
2698;SDS011;1359;51.798;12.174;2023-03-01T03:06:07;19.73;;;16.30;;
2698;SDS011;1359;51.798;12.174;2023-03-01T03:08:33;22.10;;;17.27;;
2698;SDS011;1359;51.798;12.174;2023-03-01T03:10:58;21.80;;;15.40;;
2698;SDS011;1359;51.798;12.174;2023-03-01T03:13:23;19.00;;;15.87;;
2698;SDS011;1359;51.798;12.174;2023-03-01T03:15:56;24.40;;;14.57;;
2698;SDS011;1359;51.798;12.174;2023-03-01T03:18:22;19.70;;;13.87;;
2698;SDS011;1359;51.798;12.174;2023-03-01T03:20:48;20.00;;;16.30;;
2698;SDS011;1359;51.798;12.174;2023-03-01T03:23:18;21.33;;;14.60;;
2698;SDS011;1359;51.798;12.174;2023-03-01T03:25:43;23.10;;;16.20;;
2698;SDS011;1359;51.798;12.174;2023-03-01T03:28:08;18.27;;;14.30;;
2698;SDS011;1359;51.798;12.174;2023-03-01T03:30:37;22.27;;;14.07;;
2698;SDS011;1359;51.798;12.174;2023-03-01T03:33:04;21.23;;;15.37;;
2698;SDS011;1359;51.798;12.174;2023-03-01T03:35:34;19.30;;;14.30;;
2698;SDS011;1359;51.798;12.174;2023-03-01T03:38:00;14.97;;;13.37;;
2698;SDS011;1359;51.798;12.174;2023-03-01T03:40:30;18.30;;;13.80;;
2698;SDS011;1359;51.798;12.174;2023-03-01T03:42:55;18.67;;;14.30;;
2698;SDS011;1359;51.798;12.174;2023-03-01T03:45:21;16.23;;;12.43;;
2698;SDS011;1359;51.798;12.174;2023-03-01T03:47:46;17.47;;;13.40;;
2698;SDS011;1359;51.798;12.174;2023-03-01T03:50:12;15.90;;;13.67;;
2698;SDS011;1359;51.798;12.174;2023-03-01T03:52:38;16.53;;;13.37;;
2698;SDS011;1359;51.798;12.174;2023-03-01T03:55:04;14.80;;;12.63;;
2698;SDS011;1359;51.798;12.174;2023-03-01T03:57:34;22.03;;;12.33;;
2698;SDS011;1359;51.798;12.174;2023-03-01T03:59:59;15.27;;;12.30;;
2698;SDS011;1359;51.798;12.174;2023-03-01T04:02:25;16.33;;;12.30;;
2698;SDS011;1359;51.798;12.174;2023-03-01T04:04:50;15.97;;;12.87;;
2698;SDS011;1359;51.798;12.174;2023-03-01T04:07:16;17.13;;;11.90;;
2698;SDS011;1359;51.798;12.174;2023-03-01T04:09:42;17.00;;;12.77;;
2698;SDS011;1359;51.798;12.174;2023-03-01T04:12:07;15.60;;;12.50;;
2698;SDS011;1359;51.798;12.174;2023-03-01T04:14:33;15.00;;;13.27;;
2698;SDS011;1359;51.798;12.174;2023-03-01T04:16:58;18.50;;;12.83;;
2698;SDS011;1359;51.798;12.174;2023-03-01T04:19:23;14.17;;;12.00;;
2698;SDS011;1359;51.798;12.174;2023-03-01T04:21:49;17.70;;;13.23;;
2698;SDS011;1359;51.798;12.174;2023-03-01T04:24:14;16.73;;;12.23;;
2698;SDS011;1359;51.798;12.174;2023-03-01T04:26:39;20.30;;;12.47;;
2698;SDS011;1359;51.798;12.174;2023-03-01T04:29:04;14.23;;;11.90;;
2698;SDS011;1359;51.798;12.174;2023-03-01T04:31:30;16.83;;;13.13;;
2698;SDS011;1359;51.798;12.174;2023-03-01T04:33:55;18.07;;;12.17;;
2698;SDS011;1359;51.798;12.174;2023-03-01T04:36:22;17.90;;;12.90;;
2698;SDS011;1359;51.798;12.174;2023-03-01T04:38:48;18.57;;;12.50;;
2698;SDS011;1359;51.798;12.174;2023-03-01T04:41:14;18.33;;;13.40;;
2698;SDS011;1359;51.798;12.174;2023-03-01T04:43:40;17.57;;;11.77;;
2698;SDS011;1359;51.798;12.174;2023-03-01T04:46:07;19.93;;;13.83;;
2698;SDS011;1359;51.798;12.174;2023-03-01T04:48:36;18.13;;;13.73;;
2698;SDS011;1359;51.798;12.174;2023-03-01T04:51:01;17.77;;;11.33;;
2698;SDS011;1359;51.798;12.174;2023-03-01T04:53:27;14.43;;;11.10;;
2698;SDS011;1359;51.798;12.174;2023-03-01T04:55:56;16.00;;;11.80;;
2698;SDS011;1359;51.798;12.174;2023-03-01T04:58:27;15.30;;;11.63;;
2698;SDS011;1359;51.798;12.174;2023-03-01T05:00:53;17.80;;;11.60;;
2698;SDS011;1359;51.798;12.174;2023-03-01T05:03:19;15.57;;;11.23;;
2698;SDS011;1359;51.798;12.174;2023-03-01T05:05:45;14.10;;;11.80;;
2698;SDS011;1359;51.798;12.174;2023-03-01T05:08:11;15.90;;;11.00;;
2698;SDS011;1359;51.798;12.174;2023-03-01T05:10:44;15.23;;;11.97;;
2698;SDS011;1359;51.798;12.174;2023-03-01T05:13:11;11.43;;;10.30;;
2698;SDS011;1359;51.798;12.174;2023-03-01T05:15:38;13.47;;;10.50;;
2698;SDS011;1359;51.798;12.174;2023-03-01T05:18:03;16.20;;;12.10;;
2698;SDS011;1359;51.798;12.174;2023-03-01T05:20:29;13.83;;;10.87;;
2698;SDS011;1359;51.798;12.174;2023-03-01T05:22:55;17.43;;;11.33;;
2698;SDS011;1359;51.798;12.174;2023-03-01T05:25:21;12.90;;;10.80;;
2698;SDS011;1359;51.798;12.174;2023-03-01T05:27:46;17.87;;;11.80;;
2698;SDS011;1359;51.798;12.174;2023-03-01T05:30:12;20.93;;;12.17;;
2698;SDS011;1359;51.798;12.174;2023-03-01T05:32:41;16.07;;;12.50;;
2698;SDS011;1359;51.798;12.174;2023-03-01T05:35:06;20.90;;;13.37;;
2698;SDS011;1359;51.798;12.174;2023-03-01T05:37:31;18.00;;;13.17;;
2698;SDS011;1359;51.798;12.174;2023-03-01T05:39:57;22.27;;;14.13;;
2698;SDS011;1359;51.798;12.174;2023-03-01T05:42:22;21.90;;;16.97;;
2698;SDS011;1359;51.798;12.174;2023-03-01T05:44:47;23.10;;;15.13;;
2698;SDS011;1359;51.798;12.174;2023-03-01T05:47:13;22.80;;;13.77;;
2698;SDS011;1359;51.798;12.174;2023-03-01T05:49:38;16.90;;;14.53;;
2698;SDS011;1359;51.798;12.174;2023-03-01T05:52:03;22.90;;;14.20;;
2698;SDS011;1359;51.798;12.174;2023-03-01T05:54:29;19.13;;;14.80;;
2698;SDS011;1359;51.798;12.174;2023-03-01T05:56:54;36.33;;;23.20;;
2698;SDS011;1359;51.798;12.174;2023-03-01T05:59:20;35.00;;;24.70;;
2698;SDS011;1359;51.798;12.174;2023-03-01T06:01:45;31.00;;;23.33;;
2698;SDS011;1359;51.798;12.174;2023-03-01T06:04:10;36.00;;;23.50;;
2698;SDS011;1359;51.798;12.174;2023-03-01T06:06:36;39.00;;;25.33;;
2698;SDS011;1359;51.798;12.174;2023-03-01T06:09:05;37.47;;;25.57;;
2698;SDS011;1359;51.798;12.174;2023-03-01T06:11:33;35.47;;;24.37;;
2698;SDS011;1359;51.798;12.174;2023-03-01T06:13:58;29.23;;;21.93;;
2698;SDS011;1359;51.798;12.174;2023-03-01T06:16:24;34.47;;;21.60;;
2698;SDS011;1359;51.798;12.174;2023-03-01T06:18:49;29.70;;;22.83;;
2698;SDS011;1359;51.798;12.174;2023-03-01T06:21:14;37.93;;;24.60;;
2698;SDS011;1359;51.798;12.174;2023-03-01T06:23:39;40.67;;;28.23;;
2698;SDS011;1359;51.798;12.174;2023-03-01T06:26:06;40.70;;;26.80;;
2698;SDS011;1359;51.798;12.174;2023-03-01T06:28:32;30.90;;;23.40;;
2698;SDS011;1359;51.798;12.174;2023-03-01T06:30:57;33.77;;;24.77;;
2698;SDS011;1359;51.798;12.174;2023-03-01T06:33:22;34.77;;;22.70;;
2698;SDS011;1359;51.798;12.174;2023-03-01T06:35:49;32.47;;;23.10;;
2698;SDS011;1359;51.798;12.174;2023-03-01T06:38:15;26.03;;;18.77;;
2698;SDS011;1359;51.798;12.174;2023-03-01T06:40:42;25.20;;;16.73;;
2698;SDS011;1359;51.798;12.174;2023-03-01T06:43:07;17.50;;;14.70;;
2698;SDS011;1359;51.798;12.174;2023-03-01T06:45:33;18.67;;;15.13;;
2698;SDS011;1359;51.798;12.174;2023-03-01T06:48:01;20.90;;;16.30;;
2698;SDS011;1359;51.798;12.174;2023-03-01T06:50:28;17.83;;;13.73;;
2698;SDS011;1359;51.798;12.174;2023-03-01T06:52:56;19.70;;;13.17;;
2698;SDS011;1359;51.798;12.174;2023-03-01T06:55:22;16.33;;;13.53;;
2698;SDS011;1359;51.798;12.174;2023-03-01T06:57:47;21.37;;;14.40;;
2698;SDS011;1359;51.798;12.174;2023-03-01T07:00:12;18.30;;;13.47;;
2698;SDS011;1359;51.798;12.174;2023-03-01T07:02:38;16.27;;;12.23;;
2698;SDS011;1359;51.798;12.174;2023-03-01T07:05:03;13.90;;;11.63;;
2698;SDS011;1359;51.798;12.174;2023-03-01T07:07:29;19.17;;;13.50;;
2698;SDS011;1359;51.798;12.174;2023-03-01T07:09:54;19.63;;;12.97;;
2698;SDS011;1359;51.798;12.174;2023-03-01T07:12:19;17.73;;;11.80;;
2698;SDS011;1359;51.798;12.174;2023-03-01T07:14:45;14.13;;;11.60;;
2698;SDS011;1359;51.798;12.174;2023-03-01T07:17:10;18.73;;;12.90;;
2698;SDS011;1359;51.798;12.174;2023-03-01T07:19:35;13.43;;;11.07;;
2698;SDS011;1359;51.798;12.174;2023-03-01T07:22:01;20.00;;;14.87;;
2698;SDS011;1359;51.798;12.174;2023-03-01T07:24:26;21.33;;;14.57;;
2698;SDS011;1359;51.798;12.174;2023-03-01T07:26:51;17.50;;;13.70;;
2698;SDS011;1359;51.798;12.174;2023-03-01T07:29:18;22.57;;;14.60;;
2698;SDS011;1359;51.798;12.174;2023-03-01T07:31:44;19.13;;;13.87;;
2698;SDS011;1359;51.798;12.174;2023-03-01T07:34:09;21.83;;;16.00;;
2698;SDS011;1359;51.798;12.174;2023-03-01T07:36:35;22.67;;;16.93;;
2698;SDS011;1359;51.798;12.174;2023-03-01T07:39:01;20.60;;;14.77;;
2698;SDS011;1359;51.798;12.174;2023-03-01T07:41:28;22.63;;;17.50;;
2698;SDS011;1359;51.798;12.174;2023-03-01T07:43:53;23.23;;;17.20;;
2698;SDS011;1359;51.798;12.174;2023-03-01T07:46:18;24.90;;;16.63;;
2698;SDS011;1359;51.798;12.174;2023-03-01T07:48:44;21.47;;;17.07;;
2698;SDS011;1359;51.798;12.174;2023-03-01T07:51:09;22.23;;;17.03;;
2698;SDS011;1359;51.798;12.174;2023-03-01T07:53:34;25.33;;;18.70;;
2698;SDS011;1359;51.798;12.174;2023-03-01T07:56:01;24.70;;;17.57;;
2698;SDS011;1359;51.798;12.174;2023-03-01T07:58:27;25.27;;;16.80;;
2698;SDS011;1359;51.798;12.174;2023-03-01T08:00:52;17.00;;;15.30;;
2698;SDS011;1359;51.798;12.174;2023-03-01T08:03:17;36.90;;;19.13;;
2698;SDS011;1359;51.798;12.174;2023-03-01T08:05:43;26.13;;;17.90;;
2698;SDS011;1359;51.798;12.174;2023-03-01T08:08:08;30.87;;;18.83;;
2698;SDS011;1359;51.798;12.174;2023-03-01T08:10:33;26.20;;;17.63;;
2698;SDS011;1359;51.798;12.174;2023-03-01T08:12:58;23.00;;;18.83;;
2698;SDS011;1359;51.798;12.174;2023-03-01T08:15:24;18.97;;;15.47;;
2698;SDS011;1359;51.798;12.174;2023-03-01T08:17:49;24.60;;;14.70;;
2698;SDS011;1359;51.798;12.174;2023-03-01T08:20:15;25.67;;;17.03;;
2698;SDS011;1359;51.798;12.174;2023-03-01T08:22:41;19.00;;;16.17;;
2698;SDS011;1359;51.798;12.174;2023-03-01T08:25:07;25.20;;;17.70;;
2698;SDS011;1359;51.798;12.174;2023-03-01T08:27:32;26.73;;;17.00;;
2698;SDS011;1359;51.798;12.174;2023-03-01T08:29:57;28.13;;;16.40;;
2698;SDS011;1359;51.798;12.174;2023-03-01T08:32:23;18.73;;;14.87;;
2698;SDS011;1359;51.798;12.174;2023-03-01T08:34:48;26.07;;;16.40;;
2698;SDS011;1359;51.798;12.174;2023-03-01T08:37:13;35.43;;;17.80;;
2698;SDS011;1359;51.798;12.174;2023-03-01T08:39:39;28.63;;;17.67;;
2698;SDS011;1359;51.798;12.174;2023-03-01T08:42:04;27.70;;;17.30;;
2698;SDS011;1359;51.798;12.174;2023-03-01T08:44:29;23.23;;;17.70;;
2698;SDS011;1359;51.798;12.174;2023-03-01T08:46:55;22.80;;;15.50;;
2698;SDS011;1359;51.798;12.174;2023-03-01T08:49:21;23.10;;;16.20;;
2698;SDS011;1359;51.798;12.174;2023-03-01T08:51:46;26.97;;;17.63;;
2698;SDS011;1359;51.798;12.174;2023-03-01T08:54:13;21.70;;;17.03;;
2698;SDS011;1359;51.798;12.174;2023-03-01T08:56:39;19.53;;;14.80;;
2698;SDS011;1359;51.798;12.174;2023-03-01T08:59:05;19.50;;;14.83;;
2698;SDS011;1359;51.798;12.174;2023-03-01T09:01:30;18.47;;;14.10;;
2698;SDS011;1359;51.798;12.174;2023-03-01T09:03:55;23.10;;;15.90;;
2698;SDS011;1359;51.798;12.174;2023-03-01T09:06:21;19.50;;;13.73;;
2698;SDS011;1359;51.798;12.174;2023-03-01T09:08:47;17.80;;;14.20;;
2698;SDS011;1359;51.798;12.174;2023-03-01T09:11:14;13.87;;;12.47;;
2698;SDS011;1359;51.798;12.174;2023-03-01T09:13:41;18.00;;;12.70;;
2698;SDS011;1359;51.798;12.174;2023-03-01T09:16:06;14.87;;;11.67;;
2698;SDS011;1359;51.798;12.174;2023-03-01T09:18:33;17.63;;;13.27;;
2698;SDS011;1359;51.798;12.174;2023-03-01T09:21:05;20.57;;;12.93;;
2698;SDS011;1359;51.798;12.174;2023-03-01T09:23:33;17.33;;;12.00;;
2698;SDS011;1359;51.798;12.174;2023-03-01T09:25:58;14.80;;;11.47;;
2698;SDS011;1359;51.798;12.174;2023-03-01T09:28:23;14.73;;;11.53;;
2698;SDS011;1359;51.798;12.174;2023-03-01T09:30:49;15.03;;;11.10;;
2698;SDS011;1359;51.798;12.174;2023-03-01T09:33:14;11.63;;;10.23;;
2698;SDS011;1359;51.798;12.174;2023-03-01T09:35:40;18.03;;;11.53;;
2698;SDS011;1359;51.798;12.174;2023-03-01T09:38:11;13.00;;;9.30;;
2698;SDS011;1359;51.798;12.174;2023-03-01T09:40:36;17.20;;;11.63;;
2698;SDS011;1359;51.798;12.174;2023-03-01T09:43:11;16.10;;;11.43;;
2698;SDS011;1359;51.798;12.174;2023-03-01T09:45:40;17.27;;;10.93;;
2698;SDS011;1359;51.798;12.174;2023-03-01T09:48:11;16.67;;;11.97;;
2698;SDS011;1359;51.798;12.174;2023-03-01T09:50:39;18.10;;;11.60;;
2698;SDS011;1359;51.798;12.174;2023-03-01T09:53:07;14.20;;;11.37;;
2698;SDS011;1359;51.798;12.174;2023-03-01T09:55:46;13.60;;;10.20;;
2698;SDS011;1359;51.798;12.174;2023-03-01T10:00:58;15.30;;;10.37;;
2698;SDS011;1359;51.798;12.174;2023-03-01T10:03:34;15.53;;;10.00;;
2698;SDS011;1359;51.798;12.174;2023-03-01T10:08:29;19.03;;;9.03;;
2698;SDS011;1359;51.798;12.174;2023-03-01T10:10:56;13.80;;;10.50;;
2698;SDS011;1359;51.798;12.174;2023-03-01T10:15:48;18.40;;;10.93;;
2698;SDS011;1359;51.798;12.174;2023-03-01T10:18:19;15.03;;;9.83;;
2698;SDS011;1359;51.798;12.174;2023-03-01T10:20:46;9.43;;;7.60;;
2698;SDS011;1359;51.798;12.174;2023-03-01T10:23:15;10.20;;;8.80;;
2698;SDS011;1359;51.798;12.174;2023-03-01T10:25:44;10.97;;;8.77;;
2698;SDS011;1359;51.798;12.174;2023-03-01T10:28:26;12.40;;;8.60;;
2698;SDS011;1359;51.798;12.174;2023-03-01T10:30:54;11.80;;;9.43;;
2698;SDS011;1359;51.798;12.174;2023-03-01T10:33:26;14.87;;;8.97;;
2698;SDS011;1359;51.798;12.174;2023-03-01T10:35:51;12.70;;;8.40;;
2698;SDS011;1359;51.798;12.174;2023-03-01T10:38:17;11.73;;;7.30;;
2698;SDS011;1359;51.798;12.174;2023-03-01T10:40:59;13.73;;;9.40;;
2698;SDS011;1359;51.798;12.174;2023-03-01T10:43:25;7.47;;;6.50;;
2698;SDS011;1359;51.798;12.174;2023-03-01T10:45:51;12.30;;;8.80;;
2698;SDS011;1359;51.798;12.174;2023-03-01T10:50:48;12.73;;;8.90;;
2698;SDS011;1359;51.798;12.174;2023-03-01T10:53:27;15.70;;;10.00;;
2698;SDS011;1359;51.798;12.174;2023-03-01T10:55:58;12.60;;;8.77;;
2698;SDS011;1359;51.798;12.174;2023-03-01T10:58:23;14.37;;;8.83;;
2698;SDS011;1359;51.798;12.174;2023-03-01T11:03:16;16.93;;;9.93;;
2698;SDS011;1359;51.798;12.174;2023-03-01T11:05:58;13.03;;;9.90;;
2698;SDS011;1359;51.798;12.174;2023-03-01T11:08:34;21.93;;;10.60;;
2698;SDS011;1359;51.798;12.174;2023-03-01T11:11:03;13.83;;;9.50;;
2698;SDS011;1359;51.798;12.174;2023-03-01T11:13:29;16.73;;;10.10;;
2698;SDS011;1359;51.798;12.174;2023-03-01T11:15:58;11.37;;;10.17;;
2698;SDS011;1359;51.798;12.174;2023-03-01T11:18:23;13.03;;;9.80;;
2698;SDS011;1359;51.798;12.174;2023-03-01T11:20:50;17.37;;;10.87;;
2698;SDS011;1359;51.798;12.174;2023-03-01T11:23:16;14.83;;;10.90;;
2698;SDS011;1359;51.798;12.174;2023-03-01T11:25:43;16.47;;;10.47;;
2698;SDS011;1359;51.798;12.174;2023-03-01T11:28:12;13.40;;;10.77;;
2698;SDS011;1359;51.798;12.174;2023-03-01T11:30:51;12.97;;;9.50;;
2698;SDS011;1359;51.798;12.174;2023-03-01T11:33:37;17.00;;;10.63;;
2698;SDS011;1359;51.798;12.174;2023-03-01T11:36:24;17.93;;;10.60;;
2698;SDS011;1359;51.798;12.174;2023-03-01T11:38:52;18.97;;;11.80;;
2698;SDS011;1359;51.798;12.174;2023-03-01T11:41:19;14.30;;;10.77;;
2698;SDS011;1359;51.798;12.174;2023-03-01T11:43:51;16.73;;;11.30;;
2698;SDS011;1359;51.798;12.174;2023-03-01T11:46:29;16.40;;;10.00;;
2698;SDS011;1359;51.798;12.174;2023-03-01T11:51:45;24.83;;;10.27;;
2698;SDS011;1359;51.798;12.174;2023-03-01T11:56:47;15.07;;;9.90;;
2698;SDS011;1359;51.798;12.174;2023-03-01T12:02:07;12.63;;;7.80;;
2698;SDS011;1359;51.798;12.174;2023-03-01T12:07:10;8.70;;;6.67;;
2698;SDS011;1359;51.798;12.174;2023-03-01T12:09:44;11.77;;;8.23;;
2698;SDS011;1359;51.798;12.174;2023-03-01T12:15:03;8.53;;;6.60;;
2698;SDS011;1359;51.798;12.174;2023-03-01T12:17:37;10.90;;;6.23;;
2698;SDS011;1359;51.798;12.174;2023-03-01T12:22:58;8.57;;;7.37;;
2698;SDS011;1359;51.798;12.174;2023-03-01T12:34:19;9.40;;;5.70;;
2698;SDS011;1359;51.798;12.174;2023-03-01T12:41:40;11.07;;;6.53;;
2698;SDS011;1359;51.798;12.174;2023-03-01T12:44:19;9.33;;;6.00;;
2698;SDS011;1359;51.798;12.174;2023-03-01T12:49:41;7.80;;;6.13;;
2698;SDS011;1359;51.798;12.174;2023-03-01T12:54:53;7.00;;;5.63;;
2698;SDS011;1359;51.798;12.174;2023-03-01T12:57:21;9.10;;;6.00;;
2698;SDS011;1359;51.798;12.174;2023-03-01T13:02:21;7.90;;;6.20;;
2698;SDS011;1359;51.798;12.174;2023-03-01T13:07:35;9.90;;;6.40;;
2698;SDS011;1359;51.798;12.174;2023-03-01T13:10:05;7.00;;;5.97;;
2698;SDS011;1359;51.798;12.174;2023-03-01T13:12:49;11.13;;;7.10;;
2698;SDS011;1359;51.798;12.174;2023-03-01T13:17:46;8.47;;;6.83;;
2698;SDS011;1359;51.798;12.174;2023-03-01T13:20:12;7.30;;;6.00;;
2698;SDS011;1359;51.798;12.174;2023-03-01T13:22:38;7.07;;;6.10;;
2698;SDS011;1359;51.798;12.174;2023-03-01T13:27:38;16.20;;;7.60;;
2698;SDS011;1359;51.798;12.174;2023-03-01T13:30:03;11.20;;;6.93;;
2698;SDS011;1359;51.798;12.174;2023-03-01T13:32:34;6.53;;;5.10;;
2698;SDS011;1359;51.798;12.174;2023-03-01T13:37:42;10.30;;;6.83;;
2698;SDS011;1359;51.798;12.174;2023-03-01T13:45:14;8.83;;;6.30;;
2698;SDS011;1359;51.798;12.174;2023-03-01T13:47:41;8.53;;;6.90;;
2698;SDS011;1359;51.798;12.174;2023-03-01T13:50:06;14.10;;;7.40;;
2698;SDS011;1359;51.798;12.174;2023-03-01T13:52:44;10.67;;;6.87;;
2698;SDS011;1359;51.798;12.174;2023-03-01T13:57:45;9.33;;;6.83;;
2698;SDS011;1359;51.798;12.174;2023-03-01T14:00:31;8.27;;;5.57;;
2698;SDS011;1359;51.798;12.174;2023-03-01T14:03:01;7.40;;;5.70;;
2698;SDS011;1359;51.798;12.174;2023-03-01T14:05:26;7.43;;;6.10;;
2698;SDS011;1359;51.798;12.174;2023-03-01T14:07:51;9.60;;;5.40;;
2698;SDS011;1359;51.798;12.174;2023-03-01T14:10:17;7.40;;;6.00;;
2698;SDS011;1359;51.798;12.174;2023-03-01T14:12:51;6.73;;;6.03;;
2698;SDS011;1359;51.798;12.174;2023-03-01T14:15:37;10.20;;;6.73;;
2698;SDS011;1359;51.798;12.174;2023-03-01T14:18:24;10.20;;;5.57;;
2698;SDS011;1359;51.798;12.174;2023-03-01T14:20:52;6.83;;;5.60;;
2698;SDS011;1359;51.798;12.174;2023-03-01T14:23:19;9.33;;;5.73;;
2698;SDS011;1359;51.798;12.174;2023-03-01T14:25:48;9.00;;;5.90;;
2698;SDS011;1359;51.798;12.174;2023-03-01T14:28:15;12.07;;;5.70;;
2698;SDS011;1359;51.798;12.174;2023-03-01T14:30:46;9.70;;;6.00;;
2698;SDS011;1359;51.798;12.174;2023-03-01T14:33:19;6.77;;;5.53;;
2698;SDS011;1359;51.798;12.174;2023-03-01T14:35:59;9.07;;;6.50;;
2698;SDS011;1359;51.798;12.174;2023-03-01T14:38:29;7.83;;;6.80;;
2698;SDS011;1359;51.798;12.174;2023-03-01T14:40:56;7.63;;;5.70;;
2698;SDS011;1359;51.798;12.174;2023-03-01T14:43:22;6.90;;;5.70;;
2698;SDS011;1359;51.798;12.174;2023-03-01T14:45:49;6.37;;;5.63;;
2698;SDS011;1359;51.798;12.174;2023-03-01T14:48:15;7.07;;;6.37;;
2698;SDS011;1359;51.798;12.174;2023-03-01T14:50:41;8.90;;;5.93;;
2698;SDS011;1359;51.798;12.174;2023-03-01T14:53:13;7.30;;;5.73;;
2698;SDS011;1359;51.798;12.174;2023-03-01T14:55:41;15.40;;;6.43;;
2698;SDS011;1359;51.798;12.174;2023-03-01T14:58:13;7.37;;;5.87;;
2698;SDS011;1359;51.798;12.174;2023-03-01T15:00:38;9.00;;;5.27;;
2698;SDS011;1359;51.798;12.174;2023-03-01T15:03:08;18.67;;;5.63;;
2698;SDS011;1359;51.798;12.174;2023-03-01T15:05:38;13.70;;;6.10;;
2698;SDS011;1359;51.798;12.174;2023-03-01T15:08:04;8.40;;;6.20;;
2698;SDS011;1359;51.798;12.174;2023-03-01T15:10:31;6.53;;;5.33;;
2698;SDS011;1359;51.798;12.174;2023-03-01T15:12:56;9.53;;;5.90;;
2698;SDS011;1359;51.798;12.174;2023-03-01T15:15:35;9.07;;;5.60;;
2698;SDS011;1359;51.798;12.174;2023-03-01T15:18:05;7.43;;;5.93;;
2698;SDS011;1359;51.798;12.174;2023-03-01T15:20:32;8.47;;;5.60;;
2698;SDS011;1359;51.798;12.174;2023-03-01T15:23:00;8.00;;;6.77;;
2698;SDS011;1359;51.798;12.174;2023-03-01T15:25:27;9.50;;;5.60;;
2698;SDS011;1359;51.798;12.174;2023-03-01T15:27:53;6.20;;;5.30;;
2698;SDS011;1359;51.798;12.174;2023-03-01T15:30:25;7.47;;;5.33;;
2698;SDS011;1359;51.798;12.174;2023-03-01T15:35:44;9.30;;;5.80;;
2698;SDS011;1359;51.798;12.174;2023-03-01T15:38:26;7.13;;;6.43;;
2698;SDS011;1359;51.798;12.174;2023-03-01T15:40:52;8.23;;;6.07;;
2698;SDS011;1359;51.798;12.174;2023-03-01T15:43:37;6.77;;;6.00;;
2698;SDS011;1359;51.798;12.174;2023-03-01T15:46:03;8.77;;;5.53;;
2698;SDS011;1359;51.798;12.174;2023-03-01T15:48:29;11.93;;;6.27;;
2698;SDS011;1359;51.798;12.174;2023-03-01T15:50:55;10.77;;;5.87;;
2698;SDS011;1359;51.798;12.174;2023-03-01T15:53:21;7.90;;;5.53;;
2698;SDS011;1359;51.798;12.174;2023-03-01T15:55:47;9.47;;;5.97;;
2698;SDS011;1359;51.798;12.174;2023-03-01T15:58:24;9.40;;;6.57;;